sensor_id;sensor_type;location;lat;lon;timestamp;P1;durP1;ratioP1;P2;durP2;ratioP2
16826;SDS011;8530;49.540;8.576;2023-04-09T00:00:01;10.60;;;8.30;;
16826;SDS011;8530;49.540;8.576;2023-04-09T00:02:29;9.93;;;8.90;;
16826;SDS011;8530;49.540;8.576;2023-04-09T00:04:57;10.67;;;9.03;;
16826;SDS011;8530;49.540;8.576;2023-04-09T00:07:26;10.63;;;8.13;;
16826;SDS011;8530;49.540;8.576;2023-04-09T00:09:53;10.93;;;7.83;;
16826;SDS011;8530;49.540;8.576;2023-04-09T00:12:19;9.73;;;8.30;;
16826;SDS011;8530;49.540;8.576;2023-04-09T00:14:46;10.10;;;8.53;;
16826;SDS011;8530;49.540;8.576;2023-04-09T00:17:13;10.53;;;8.90;;
16826;SDS011;8530;49.540;8.576;2023-04-09T00:19:39;13.20;;;8.93;;
16826;SDS011;8530;49.540;8.576;2023-04-09T00:22:07;9.60;;;8.60;;
16826;SDS011;8530;49.540;8.576;2023-04-09T00:24:34;9.80;;;8.27;;
16826;SDS011;8530;49.540;8.576;2023-04-09T00:27:01;8.80;;;7.80;;
16826;SDS011;8530;49.540;8.576;2023-04-09T00:29:28;10.77;;;8.53;;
16826;SDS011;8530;49.540;8.576;2023-04-09T00:31:55;12.47;;;9.00;;
16826;SDS011;8530;49.540;8.576;2023-04-09T00:34:22;12.63;;;10.10;;
16826;SDS011;8530;49.540;8.576;2023-04-09T00:36:48;10.30;;;8.40;;
16826;SDS011;8530;49.540;8.576;2023-04-09T00:39:16;10.37;;;7.77;;
16826;SDS011;8530;49.540;8.576;2023-04-09T00:41:43;11.33;;;9.17;;
16826;SDS011;8530;49.540;8.576;2023-04-09T00:44:10;12.73;;;8.93;;
16826;SDS011;8530;49.540;8.576;2023-04-09T00:46:36;13.27;;;8.60;;
16826;SDS011;8530;49.540;8.576;2023-04-09T00:49:03;11.97;;;9.07;;
16826;SDS011;8530;49.540;8.576;2023-04-09T00:51:31;10.37;;;9.27;;
16826;SDS011;8530;49.540;8.576;2023-04-09T00:53:58;11.40;;;9.50;;
16826;SDS011;8530;49.540;8.576;2023-04-09T00:56:26;11.00;;;9.70;;
16826;SDS011;8530;49.540;8.576;2023-04-09T00:58:54;12.10;;;9.93;;
16826;SDS011;8530;49.540;8.576;2023-04-09T01:01:21;10.43;;;9.23;;
16826;SDS011;8530;49.540;8.576;2023-04-09T01:03:48;10.70;;;9.17;;
16826;SDS011;8530;49.540;8.576;2023-04-09T01:06:17;11.87;;;9.70;;
16826;SDS011;8530;49.540;8.576;2023-04-09T01:08:54;15.33;;;11.23;;
16826;SDS011;8530;49.540;8.576;2023-04-09T01:11:31;12.40;;;9.50;;
16826;SDS011;8530;49.540;8.576;2023-04-09T01:14:04;12.73;;;10.17;;
16826;SDS011;8530;49.540;8.576;2023-04-09T01:16:37;14.53;;;11.00;;
16826;SDS011;8530;49.540;8.576;2023-04-09T01:19:14;15.20;;;12.47;;
16826;SDS011;8530;49.540;8.576;2023-04-09T01:21:53;17.93;;;12.73;;
16826;SDS011;8530;49.540;8.576;2023-04-09T01:24:28;16.23;;;12.20;;
16826;SDS011;8530;49.540;8.576;2023-04-09T01:27:05;16.47;;;12.60;;
16826;SDS011;8530;49.540;8.576;2023-04-09T01:29:34;16.43;;;11.90;;
16826;SDS011;8530;49.540;8.576;2023-04-09T01:32:06;16.97;;;12.70;;
16826;SDS011;8530;49.540;8.576;2023-04-09T01:34:33;13.97;;;11.93;;
16826;SDS011;8530;49.540;8.576;2023-04-09T01:37:02;16.80;;;11.60;;
16826;SDS011;8530;49.540;8.576;2023-04-09T01:39:29;15.20;;;11.63;;
16826;SDS011;8530;49.540;8.576;2023-04-09T01:41:57;15.87;;;12.13;;
16826;SDS011;8530;49.540;8.576;2023-04-09T01:44:26;12.73;;;9.67;;
16826;SDS011;8530;49.540;8.576;2023-04-09T01:46:55;15.10;;;11.80;;
16826;SDS011;8530;49.540;8.576;2023-04-09T01:49:24;14.47;;;12.13;;
16826;SDS011;8530;49.540;8.576;2023-04-09T01:51:51;15.37;;;11.80;;
16826;SDS011;8530;49.540;8.576;2023-04-09T01:54:18;15.93;;;12.67;;
16826;SDS011;8530;49.540;8.576;2023-04-09T01:56:46;14.13;;;12.10;;
16826;SDS011;8530;49.540;8.576;2023-04-09T01:59:13;15.70;;;12.10;;
16826;SDS011;8530;49.540;8.576;2023-04-09T02:01:42;15.90;;;11.50;;
16826;SDS011;8530;49.540;8.576;2023-04-09T02:04:21;15.50;;;12.17;;
16826;SDS011;8530;49.540;8.576;2023-04-09T02:06:52;15.80;;;12.27;;
16826;SDS011;8530;49.540;8.576;2023-04-09T02:09:23;15.57;;;12.67;;
16826;SDS011;8530;49.540;8.576;2023-04-09T02:11:53;16.17;;;11.50;;
16826;SDS011;8530;49.540;8.576;2023-04-09T02:14:21;18.27;;;13.40;;
16826;SDS011;8530;49.540;8.576;2023-04-09T02:16:50;14.07;;;11.73;;
16826;SDS011;8530;49.540;8.576;2023-04-09T02:19:17;39.37;;;22.10;;
16826;SDS011;8530;49.540;8.576;2023-04-09T02:21:46;27.27;;;17.00;;
16826;SDS011;8530;49.540;8.576;2023-04-09T02:24:12;24.40;;;16.50;;
16826;SDS011;8530;49.540;8.576;2023-04-09T02:26:39;15.50;;;13.13;;
16826;SDS011;8530;49.540;8.576;2023-04-09T02:29:06;16.23;;;13.03;;
16826;SDS011;8530;49.540;8.576;2023-04-09T02:31:32;18.17;;;13.43;;
16826;SDS011;8530;49.540;8.576;2023-04-09T02:33:59;17.27;;;13.23;;
16826;SDS011;8530;49.540;8.576;2023-04-09T02:36:26;20.47;;;14.00;;
16826;SDS011;8530;49.540;8.576;2023-04-09T02:38:57;19.50;;;15.33;;
16826;SDS011;8530;49.540;8.576;2023-04-09T02:41:24;18.30;;;13.13;;
16826;SDS011;8530;49.540;8.576;2023-04-09T02:43:51;15.47;;;12.87;;
16826;SDS011;8530;49.540;8.576;2023-04-09T02:46:17;19.17;;;13.70;;
16826;SDS011;8530;49.540;8.576;2023-04-09T02:48:44;18.40;;;15.20;;
16826;SDS011;8530;49.540;8.576;2023-04-09T02:51:11;25.23;;;15.40;;
16826;SDS011;8530;49.540;8.576;2023-04-09T02:53:37;19.70;;;14.70;;
16826;SDS011;8530;49.540;8.576;2023-04-09T02:56:06;15.90;;;12.63;;
16826;SDS011;8530;49.540;8.576;2023-04-09T02:58:33;19.00;;;14.63;;
16826;SDS011;8530;49.540;8.576;2023-04-09T03:00:59;16.30;;;13.00;;
16826;SDS011;8530;49.540;8.576;2023-04-09T03:03:26;17.80;;;13.50;;
16826;SDS011;8530;49.540;8.576;2023-04-09T03:05:53;20.47;;;14.03;;
16826;SDS011;8530;49.540;8.576;2023-04-09T03:08:19;17.10;;;13.30;;
16826;SDS011;8530;49.540;8.576;2023-04-09T03:10:46;17.63;;;13.20;;
16826;SDS011;8530;49.540;8.576;2023-04-09T03:13:14;16.97;;;12.23;;
16826;SDS011;8530;49.540;8.576;2023-04-09T03:15:41;21.43;;;15.87;;
16826;SDS011;8530;49.540;8.576;2023-04-09T03:18:08;19.30;;;14.20;;
16826;SDS011;8530;49.540;8.576;2023-04-09T03:20:36;20.50;;;15.17;;
16826;SDS011;8530;49.540;8.576;2023-04-09T03:23:03;15.20;;;12.57;;
16826;SDS011;8530;49.540;8.576;2023-04-09T03:25:30;17.67;;;14.50;;
16826;SDS011;8530;49.540;8.576;2023-04-09T03:27:57;17.97;;;14.70;;
16826;SDS011;8530;49.540;8.576;2023-04-09T03:30:25;19.87;;;14.13;;
16826;SDS011;8530;49.540;8.576;2023-04-09T03:32:51;18.63;;;13.10;;
16826;SDS011;8530;49.540;8.576;2023-04-09T03:35:18;20.60;;;13.77;;
16826;SDS011;8530;49.540;8.576;2023-04-09T03:37:45;23.63;;;16.50;;
16826;SDS011;8530;49.540;8.576;2023-04-09T03:40:12;19.50;;;13.53;;
16826;SDS011;8530;49.540;8.576;2023-04-09T03:42:40;18.93;;;13.43;;
16826;SDS011;8530;49.540;8.576;2023-04-09T03:45:07;24.77;;;16.93;;
16826;SDS011;8530;49.540;8.576;2023-04-09T03:47:36;20.80;;;15.33;;
16826;SDS011;8530;49.540;8.576;2023-04-09T03:50:03;20.40;;;14.57;;
16826;SDS011;8530;49.540;8.576;2023-04-09T03:52:30;18.40;;;15.33;;
16826;SDS011;8530;49.540;8.576;2023-04-09T03:54:56;19.40;;;14.83;;
16826;SDS011;8530;49.540;8.576;2023-04-09T03:57:23;22.23;;;16.80;;
16826;SDS011;8530;49.540;8.576;2023-04-09T03:59:50;19.30;;;14.90;;
16826;SDS011;8530;49.540;8.576;2023-04-09T04:02:16;21.97;;;15.20;;
16826;SDS011;8530;49.540;8.576;2023-04-09T04:04:44;23.67;;;16.10;;
16826;SDS011;8530;49.540;8.576;2023-04-09T04:07:11;22.27;;;15.47;;
16826;SDS011;8530;49.540;8.576;2023-04-09T04:09:38;22.30;;;15.70;;
16826;SDS011;8530;49.540;8.576;2023-04-09T04:12:04;24.60;;;16.70;;
16826;SDS011;8530;49.540;8.576;2023-04-09T04:14:31;23.17;;;18.23;;
16826;SDS011;8530;49.540;8.576;2023-04-09T04:16:58;24.07;;;14.80;;
16826;SDS011;8530;49.540;8.576;2023-04-09T04:19:25;24.33;;;17.40;;
16826;SDS011;8530;49.540;8.576;2023-04-09T04:21:53;23.77;;;16.47;;
16826;SDS011;8530;49.540;8.576;2023-04-09T04:24:19;29.57;;;15.83;;
16826;SDS011;8530;49.540;8.576;2023-04-09T04:26:46;22.93;;;17.03;;
16826;SDS011;8530;49.540;8.576;2023-04-09T04:29:13;21.23;;;13.67;;
16826;SDS011;8530;49.540;8.576;2023-04-09T04:31:40;23.57;;;17.37;;
16826;SDS011;8530;49.540;8.576;2023-04-09T04:34:06;23.30;;;17.13;;
16826;SDS011;8530;49.540;8.576;2023-04-09T04:36:33;21.40;;;16.20;;
16826;SDS011;8530;49.540;8.576;2023-04-09T04:39:02;23.53;;;17.10;;
16826;SDS011;8530;49.540;8.576;2023-04-09T04:41:29;24.17;;;17.80;;
16826;SDS011;8530;49.540;8.576;2023-04-09T04:43:56;22.50;;;16.40;;
16826;SDS011;8530;49.540;8.576;2023-04-09T04:46:22;21.17;;;15.63;;
16826;SDS011;8530;49.540;8.576;2023-04-09T04:48:49;21.40;;;15.23;;
16826;SDS011;8530;49.540;8.576;2023-04-09T04:51:16;23.77;;;17.83;;
16826;SDS011;8530;49.540;8.576;2023-04-09T04:53:43;25.83;;;16.30;;
16826;SDS011;8530;49.540;8.576;2023-04-09T04:56:12;22.27;;;16.67;;
16826;SDS011;8530;49.540;8.576;2023-04-09T04:58:39;22.70;;;17.60;;
16826;SDS011;8530;49.540;8.576;2023-04-09T05:01:06;25.70;;;18.93;;
16826;SDS011;8530;49.540;8.576;2023-04-09T05:03:33;23.30;;;17.87;;
16826;SDS011;8530;49.540;8.576;2023-04-09T05:05:59;26.17;;;17.43;;
16826;SDS011;8530;49.540;8.576;2023-04-09T05:08:27;25.30;;;18.27;;
16826;SDS011;8530;49.540;8.576;2023-04-09T05:10:54;22.40;;;17.03;;
16826;SDS011;8530;49.540;8.576;2023-04-09T05:13:22;31.53;;;18.30;;
16826;SDS011;8530;49.540;8.576;2023-04-09T05:15:49;24.80;;;18.00;;
16826;SDS011;8530;49.540;8.576;2023-04-09T05:18:15;27.70;;;19.00;;
16826;SDS011;8530;49.540;8.576;2023-04-09T05:20:42;21.90;;;16.00;;
16826;SDS011;8530;49.540;8.576;2023-04-09T05:23:09;22.80;;;17.30;;
16826;SDS011;8530;49.540;8.576;2023-04-09T05:25:36;29.67;;;18.77;;
16826;SDS011;8530;49.540;8.576;2023-04-09T05:28:03;26.57;;;17.77;;
16826;SDS011;8530;49.540;8.576;2023-04-09T05:30:31;25.23;;;17.17;;
16826;SDS011;8530;49.540;8.576;2023-04-09T05:32:58;22.67;;;17.00;;
16826;SDS011;8530;49.540;8.576;2023-04-09T05:35:25;24.83;;;16.70;;
16826;SDS011;8530;49.540;8.576;2023-04-09T05:37:51;29.63;;;20.20;;
16826;SDS011;8530;49.540;8.576;2023-04-09T05:40:18;25.40;;;18.10;;
16826;SDS011;8530;49.540;8.576;2023-04-09T05:42:45;24.23;;;18.93;;
16826;SDS011;8530;49.540;8.576;2023-04-09T05:45:12;25.30;;;18.10;;
16826;SDS011;8530;49.540;8.576;2023-04-09T05:47:40;25.50;;;18.33;;
16826;SDS011;8530;49.540;8.576;2023-04-09T05:50:06;22.00;;;17.90;;
16826;SDS011;8530;49.540;8.576;2023-04-09T05:52:34;23.50;;;18.47;;
16826;SDS011;8530;49.540;8.576;2023-04-09T05:55:00;25.97;;;17.90;;
16826;SDS011;8530;49.540;8.576;2023-04-09T05:57:27;23.33;;;17.47;;
16826;SDS011;8530;49.540;8.576;2023-04-09T05:59:55;21.90;;;17.80;;
16826;SDS011;8530;49.540;8.576;2023-04-09T06:02:21;25.80;;;18.67;;
16826;SDS011;8530;49.540;8.576;2023-04-09T06:04:50;20.47;;;17.43;;
16826;SDS011;8530;49.540;8.576;2023-04-09T06:07:16;21.20;;;17.33;;
16826;SDS011;8530;49.540;8.576;2023-04-09T06:09:43;24.27;;;18.73;;
16826;SDS011;8530;49.540;8.576;2023-04-09T06:12:10;26.73;;;19.60;;
16826;SDS011;8530;49.540;8.576;2023-04-09T06:14:37;23.77;;;17.30;;
16826;SDS011;8530;49.540;8.576;2023-04-09T06:17:04;25.43;;;17.53;;
16826;SDS011;8530;49.540;8.576;2023-04-09T06:19:31;23.80;;;16.30;;
16826;SDS011;8530;49.540;8.576;2023-04-09T06:22:01;23.83;;;17.70;;
16826;SDS011;8530;49.540;8.576;2023-04-09T06:24:29;24.03;;;17.23;;
16826;SDS011;8530;49.540;8.576;2023-04-09T06:26:57;23.00;;;18.10;;
16826;SDS011;8530;49.540;8.576;2023-04-09T06:29:24;20.73;;;16.87;;
16826;SDS011;8530;49.540;8.576;2023-04-09T06:31:51;21.10;;;15.93;;
16826;SDS011;8530;49.540;8.576;2023-04-09T06:34:18;24.37;;;18.23;;
16826;SDS011;8530;49.540;8.576;2023-04-09T06:36:45;20.60;;;15.93;;
16826;SDS011;8530;49.540;8.576;2023-04-09T06:39:24;27.10;;;19.00;;
16826;SDS011;8530;49.540;8.576;2023-04-09T06:41:50;21.87;;;16.83;;
16826;SDS011;8530;49.540;8.576;2023-04-09T06:44:17;23.70;;;17.40;;
16826;SDS011;8530;49.540;8.576;2023-04-09T06:46:44;22.70;;;16.90;;
16826;SDS011;8530;49.540;8.576;2023-04-09T06:49:10;21.80;;;17.37;;
16826;SDS011;8530;49.540;8.576;2023-04-09T06:51:37;26.20;;;18.77;;
16826;SDS011;8530;49.540;8.576;2023-04-09T06:54:04;21.87;;;16.27;;
16826;SDS011;8530;49.540;8.576;2023-04-09T06:56:32;25.07;;;18.97;;
16826;SDS011;8530;49.540;8.576;2023-04-09T06:58:59;21.43;;;17.53;;
16826;SDS011;8530;49.540;8.576;2023-04-09T07:01:25;22.77;;;18.87;;
16826;SDS011;8530;49.540;8.576;2023-04-09T07:03:52;23.03;;;16.77;;
16826;SDS011;8530;49.540;8.576;2023-04-09T07:06:19;18.57;;;16.13;;
16826;SDS011;8530;49.540;8.576;2023-04-09T07:08:46;19.67;;;16.17;;
16826;SDS011;8530;49.540;8.576;2023-04-09T07:11:12;22.10;;;16.90;;
16826;SDS011;8530;49.540;8.576;2023-04-09T07:13:42;19.10;;;15.10;;
16826;SDS011;8530;49.540;8.576;2023-04-09T07:16:09;19.50;;;16.40;;
16826;SDS011;8530;49.540;8.576;2023-04-09T07:18:35;20.80;;;17.17;;
16826;SDS011;8530;49.540;8.576;2023-04-09T07:21:02;18.87;;;15.47;;
16826;SDS011;8530;49.540;8.576;2023-04-09T07:23:29;20.07;;;16.17;;
16826;SDS011;8530;49.540;8.576;2023-04-09T07:26:00;19.10;;;15.70;;
16826;SDS011;8530;49.540;8.576;2023-04-09T07:28:27;20.70;;;16.67;;
16826;SDS011;8530;49.540;8.576;2023-04-09T07:30:55;16.80;;;14.43;;
16826;SDS011;8530;49.540;8.576;2023-04-09T07:33:21;18.07;;;14.73;;
16826;SDS011;8530;49.540;8.576;2023-04-09T07:35:48;19.20;;;16.40;;
16826;SDS011;8530;49.540;8.576;2023-04-09T07:38:15;15.83;;;14.17;;
16826;SDS011;8530;49.540;8.576;2023-04-09T07:40:42;19.43;;;14.27;;
16826;SDS011;8530;49.540;8.576;2023-04-09T07:43:08;18.93;;;15.60;;
16826;SDS011;8530;49.540;8.576;2023-04-09T07:45:35;19.40;;;16.03;;
16826;SDS011;8530;49.540;8.576;2023-04-09T07:48:04;17.00;;;14.30;;
16826;SDS011;8530;49.540;8.576;2023-04-09T07:50:32;14.87;;;12.37;;
16826;SDS011;8530;49.540;8.576;2023-04-09T07:52:59;17.40;;;13.57;;
16826;SDS011;8530;49.540;8.576;2023-04-09T07:55:26;15.23;;;13.20;;
16826;SDS011;8530;49.540;8.576;2023-04-09T07:57:53;19.17;;;15.33;;
16826;SDS011;8530;49.540;8.576;2023-04-09T08:00:19;17.10;;;14.10;;
16826;SDS011;8530;49.540;8.576;2023-04-09T08:02:46;16.23;;;14.10;;
16826;SDS011;8530;49.540;8.576;2023-04-09T08:05:14;22.10;;;15.60;;
16826;SDS011;8530;49.540;8.576;2023-04-09T08:07:41;16.27;;;14.37;;
16826;SDS011;8530;49.540;8.576;2023-04-09T08:10:08;16.47;;;13.30;;
16826;SDS011;8530;49.540;8.576;2023-04-09T08:12:39;17.07;;;13.53;;
16826;SDS011;8530;49.540;8.576;2023-04-09T08:15:06;16.60;;;14.40;;
16826;SDS011;8530;49.540;8.576;2023-04-09T08:17:33;15.77;;;14.07;;
16826;SDS011;8530;49.540;8.576;2023-04-09T08:20:01;15.93;;;12.63;;
16826;SDS011;8530;49.540;8.576;2023-04-09T08:22:29;16.30;;;14.60;;
16826;SDS011;8530;49.540;8.576;2023-04-09T08:24:56;15.30;;;12.70;;
16826;SDS011;8530;49.540;8.576;2023-04-09T08:27:23;14.47;;;12.23;;
16826;SDS011;8530;49.540;8.576;2023-04-09T08:29:49;14.07;;;12.03;;
16826;SDS011;8530;49.540;8.576;2023-04-09T08:32:16;14.27;;;12.80;;
16826;SDS011;8530;49.540;8.576;2023-04-09T08:34:43;13.20;;;11.70;;
16826;SDS011;8530;49.540;8.576;2023-04-09T08:37:09;14.53;;;12.03;;
16826;SDS011;8530;49.540;8.576;2023-04-09T08:39:38;11.80;;;10.27;;
16826;SDS011;8530;49.540;8.576;2023-04-09T08:42:04;11.40;;;10.27;;
16826;SDS011;8530;49.540;8.576;2023-04-09T08:44:33;13.53;;;11.00;;
16826;SDS011;8530;49.540;8.576;2023-04-09T08:47:00;12.87;;;10.27;;
16826;SDS011;8530;49.540;8.576;2023-04-09T08:49:26;13.77;;;10.87;;
16826;SDS011;8530;49.540;8.576;2023-04-09T08:51:53;14.70;;;11.03;;
16826;SDS011;8530;49.540;8.576;2023-04-09T08:54:20;13.47;;;11.43;;
16826;SDS011;8530;49.540;8.576;2023-04-09T08:56:51;11.17;;;10.07;;
16826;SDS011;8530;49.540;8.576;2023-04-09T08:59:19;14.40;;;11.37;;
16826;SDS011;8530;49.540;8.576;2023-04-09T09:01:48;12.93;;;10.27;;
16826;SDS011;8530;49.540;8.576;2023-04-09T09:04:34;11.23;;;9.33;;
16826;SDS011;8530;49.540;8.576;2023-04-09T09:07:11;11.60;;;10.00;;
16826;SDS011;8530;49.540;8.576;2023-04-09T09:09:54;11.93;;;10.43;;
16826;SDS011;8530;49.540;8.576;2023-04-09T09:12:34;14.63;;;11.40;;
16826;SDS011;8530;49.540;8.576;2023-04-09T09:15:03;11.70;;;10.50;;
16826;SDS011;8530;49.540;8.576;2023-04-09T09:17:31;12.17;;;10.63;;
16826;SDS011;8530;49.540;8.576;2023-04-09T09:19:59;12.53;;;10.20;;
16826;SDS011;8530;49.540;8.576;2023-04-09T09:22:47;12.13;;;10.10;;
16826;SDS011;8530;49.540;8.576;2023-04-09T09:25:15;12.70;;;9.63;;
16826;SDS011;8530;49.540;8.576;2023-04-09T09:27:43;21.83;;;9.80;;
16826;SDS011;8530;49.540;8.576;2023-04-09T09:30:18;11.93;;;8.57;;
16826;SDS011;8530;49.540;8.576;2023-04-09T09:32:47;9.17;;;8.23;;
16826;SDS011;8530;49.540;8.576;2023-04-09T09:35:17;10.90;;;9.20;;
16826;SDS011;8530;49.540;8.576;2023-04-09T09:37:44;14.47;;;10.27;;
16826;SDS011;8530;49.540;8.576;2023-04-09T09:40:11;11.00;;;9.70;;
16826;SDS011;8530;49.540;8.576;2023-04-09T09:42:54;10.67;;;8.33;;
16826;SDS011;8530;49.540;8.576;2023-04-09T09:45:21;9.67;;;8.67;;
16826;SDS011;8530;49.540;8.576;2023-04-09T09:47:49;10.97;;;9.43;;
16826;SDS011;8530;49.540;8.576;2023-04-09T09:50:17;10.33;;;9.17;;
16826;SDS011;8530;49.540;8.576;2023-04-09T09:52:44;9.33;;;8.30;;
16826;SDS011;8530;49.540;8.576;2023-04-09T09:55:12;7.50;;;6.70;;
16826;SDS011;8530;49.540;8.576;2023-04-09T09:57:41;9.50;;;8.23;;
16826;SDS011;8530;49.540;8.576;2023-04-09T10:00:12;9.63;;;8.60;;
16826;SDS011;8530;49.540;8.576;2023-04-09T10:02:42;11.17;;;9.10;;
16826;SDS011;8530;49.540;8.576;2023-04-09T10:05:13;11.77;;;9.43;;
16826;SDS011;8530;49.540;8.576;2023-04-09T10:07:40;9.23;;;7.77;;
16826;SDS011;8530;49.540;8.576;2023-04-09T10:10:09;11.90;;;9.00;;
16826;SDS011;8530;49.540;8.576;2023-04-09T10:12:36;9.07;;;8.17;;
16826;SDS011;8530;49.540;8.576;2023-04-09T10:15:06;10.40;;;9.27;;
16826;SDS011;8530;49.540;8.576;2023-04-09T10:17:35;11.63;;;8.53;;
16826;SDS011;8530;49.540;8.576;2023-04-09T10:20:04;10.53;;;8.17;;
16826;SDS011;8530;49.540;8.576;2023-04-09T10:22:36;11.10;;;8.20;;
16826;SDS011;8530;49.540;8.576;2023-04-09T10:25:04;9.87;;;7.10;;
16826;SDS011;8530;49.540;8.576;2023-04-09T10:27:32;8.87;;;7.57;;
16826;SDS011;8530;49.540;8.576;2023-04-09T10:29:58;11.00;;;8.20;;
16826;SDS011;8530;49.540;8.576;2023-04-09T10:32:26;10.90;;;9.03;;
16826;SDS011;8530;49.540;8.576;2023-04-09T10:35:02;9.87;;;8.70;;
16826;SDS011;8530;49.540;8.576;2023-04-09T10:37:29;9.50;;;7.43;;
16826;SDS011;8530;49.540;8.576;2023-04-09T10:39:56;12.50;;;9.23;;
16826;SDS011;8530;49.540;8.576;2023-04-09T10:42:24;11.23;;;8.63;;
16826;SDS011;8530;49.540;8.576;2023-04-09T10:45:03;12.13;;;8.73;;
16826;SDS011;8530;49.540;8.576;2023-04-09T10:47:31;10.53;;;9.07;;
16826;SDS011;8530;49.540;8.576;2023-04-09T10:50:14;10.90;;;8.57;;
16826;SDS011;8530;49.540;8.576;2023-04-09T10:52:42;10.00;;;8.87;;
16826;SDS011;8530;49.540;8.576;2023-04-09T10:55:08;8.67;;;7.77;;
16826;SDS011;8530;49.540;8.576;2023-04-09T10:57:54;13.13;;;9.33;;
16826;SDS011;8530;49.540;8.576;2023-04-09T11:00:21;8.73;;;7.27;;
16826;SDS011;8530;49.540;8.576;2023-04-09T11:02:55;9.43;;;8.03;;
16826;SDS011;8530;49.540;8.576;2023-04-09T11:05:36;9.10;;;7.43;;
16826;SDS011;8530;49.540;8.576;2023-04-09T11:08:04;9.40;;;7.60;;
16826;SDS011;8530;49.540;8.576;2023-04-09T11:10:32;9.07;;;7.10;;
16826;SDS011;8530;49.540;8.576;2023-04-09T11:12:59;8.07;;;7.20;;
16826;SDS011;8530;49.540;8.576;2023-04-09T11:15:26;7.10;;;6.40;;
16826;SDS011;8530;49.540;8.576;2023-04-09T11:17:53;9.30;;;7.80;;
16826;SDS011;8530;49.540;8.576;2023-04-09T11:20:22;9.97;;;7.60;;
16826;SDS011;8530;49.540;8.576;2023-04-09T11:22:51;7.87;;;6.97;;
16826;SDS011;8530;49.540;8.576;2023-04-09T11:25:19;11.33;;;7.77;;
16826;SDS011;8530;49.540;8.576;2023-04-09T11:27:47;7.73;;;6.93;;
16826;SDS011;8530;49.540;8.576;2023-04-09T11:30:14;7.57;;;6.80;;
16826;SDS011;8530;49.540;8.576;2023-04-09T11:32:41;7.30;;;6.60;;
16826;SDS011;8530;49.540;8.576;2023-04-09T11:35:12;6.73;;;6.10;;
16826;SDS011;8530;49.540;8.576;2023-04-09T11:37:39;7.37;;;6.57;;
16826;SDS011;8530;49.540;8.576;2023-04-09T11:40:12;9.60;;;7.50;;
16826;SDS011;8530;49.540;8.576;2023-04-09T11:42:41;8.90;;;6.80;;
16826;SDS011;8530;49.540;8.576;2023-04-09T11:47:36;11.03;;;8.97;;
16826;SDS011;8530;49.540;8.576;2023-04-09T11:50:05;8.97;;;7.13;;
16826;SDS011;8530;49.540;8.576;2023-04-09T11:52:33;7.23;;;6.53;;
16826;SDS011;8530;49.540;8.576;2023-04-09T11:55:00;7.77;;;6.13;;
16826;SDS011;8530;49.540;8.576;2023-04-09T12:00:12;9.13;;;7.20;;
16826;SDS011;8530;49.540;8.576;2023-04-09T12:02:41;7.73;;;6.90;;
16826;SDS011;8530;49.540;8.576;2023-04-09T12:05:11;8.67;;;6.40;;
16826;SDS011;8530;49.540;8.576;2023-04-09T12:07:45;7.83;;;6.50;;
16826;SDS011;8530;49.540;8.576;2023-04-09T12:10:12;8.87;;;6.20;;
16826;SDS011;8530;49.540;8.576;2023-04-09T12:12:39;7.60;;;6.83;;
16826;SDS011;8530;49.540;8.576;2023-04-09T12:15:17;10.47;;;6.87;;
16826;SDS011;8530;49.540;8.576;2023-04-09T12:17:46;6.70;;;6.07;;
16826;SDS011;8530;49.540;8.576;2023-04-09T12:23:08;7.30;;;6.10;;
16826;SDS011;8530;49.540;8.576;2023-04-09T12:25:37;6.23;;;5.63;;
16826;SDS011;8530;49.540;8.576;2023-04-09T12:28:05;6.00;;;5.40;;
16826;SDS011;8530;49.540;8.576;2023-04-09T12:30:35;6.50;;;5.60;;
16826;SDS011;8530;49.540;8.576;2023-04-09T12:33:02;8.77;;;6.53;;
16826;SDS011;8530;49.540;8.576;2023-04-09T12:35:29;4.47;;;4.07;;
16826;SDS011;8530;49.540;8.576;2023-04-09T12:37:56;7.00;;;5.90;;
16826;SDS011;8530;49.540;8.576;2023-04-09T12:40:24;6.27;;;5.30;;
16826;SDS011;8530;49.540;8.576;2023-04-09T12:42:52;5.27;;;4.77;;
16826;SDS011;8530;49.540;8.576;2023-04-09T12:45:19;7.10;;;5.93;;
16826;SDS011;8530;49.540;8.576;2023-04-09T12:47:47;7.90;;;5.90;;
16826;SDS011;8530;49.540;8.576;2023-04-09T12:50:14;7.03;;;5.60;;
16826;SDS011;8530;49.540;8.576;2023-04-09T12:52:41;5.97;;;5.20;;
16826;SDS011;8530;49.540;8.576;2023-04-09T12:55:08;5.50;;;4.60;;
16826;SDS011;8530;49.540;8.576;2023-04-09T12:57:35;5.13;;;4.50;;
16826;SDS011;8530;49.540;8.576;2023-04-09T13:00:04;5.53;;;5.00;;
16826;SDS011;8530;49.540;8.576;2023-04-09T13:02:31;5.43;;;4.70;;
16826;SDS011;8530;49.540;8.576;2023-04-09T13:04:59;7.23;;;4.40;;
16826;SDS011;8530;49.540;8.576;2023-04-09T13:07:26;5.40;;;4.90;;
16826;SDS011;8530;49.540;8.576;2023-04-09T13:09:53;4.70;;;4.23;;
16826;SDS011;8530;49.540;8.576;2023-04-09T13:12:20;15.00;;;8.53;;
16826;SDS011;8530;49.540;8.576;2023-04-09T13:14:47;8.10;;;5.83;;
16826;SDS011;8530;49.540;8.576;2023-04-09T13:17:16;5.87;;;5.23;;
16826;SDS011;8530;49.540;8.576;2023-04-09T13:19:42;5.23;;;4.70;;
16826;SDS011;8530;49.540;8.576;2023-04-09T13:22:11;5.97;;;5.10;;
16826;SDS011;8530;49.540;8.576;2023-04-09T13:24:38;5.13;;;4.63;;
16826;SDS011;8530;49.540;8.576;2023-04-09T13:27:05;6.17;;;5.57;;
16826;SDS011;8530;49.540;8.576;2023-04-09T13:29:33;5.10;;;4.47;;
16826;SDS011;8530;49.540;8.576;2023-04-09T13:32:00;8.70;;;7.30;;
16826;SDS011;8530;49.540;8.576;2023-04-09T13:34:31;5.30;;;4.80;;
16826;SDS011;8530;49.540;8.576;2023-04-09T13:36:58;5.40;;;4.90;;
16826;SDS011;8530;49.540;8.576;2023-04-09T13:39:26;5.87;;;4.83;;
16826;SDS011;8530;49.540;8.576;2023-04-09T13:41:52;7.77;;;6.57;;
16826;SDS011;8530;49.540;8.576;2023-04-09T13:44:20;8.50;;;6.80;;
16826;SDS011;8530;49.540;8.576;2023-04-09T13:46:47;5.60;;;4.53;;
16826;SDS011;8530;49.540;8.576;2023-04-09T13:49:14;6.87;;;5.13;;
16826;SDS011;8530;49.540;8.576;2023-04-09T13:51:41;5.80;;;4.80;;
16826;SDS011;8530;49.540;8.576;2023-04-09T13:54:08;4.93;;;4.30;;
16826;SDS011;8530;49.540;8.576;2023-04-09T13:56:36;16.83;;;4.30;;
16826;SDS011;8530;49.540;8.576;2023-04-09T13:59:03;4.70;;;4.30;;
16826;SDS011;8530;49.540;8.576;2023-04-09T14:01:30;5.10;;;4.00;;
16826;SDS011;8530;49.540;8.576;2023-04-09T14:03:57;4.27;;;3.87;;
16826;SDS011;8530;49.540;8.576;2023-04-09T14:06:23;3.77;;;3.23;;
16826;SDS011;8530;49.540;8.576;2023-04-09T14:08:51;8.60;;;6.67;;
16826;SDS011;8530;49.540;8.576;2023-04-09T14:11:17;14.03;;;11.53;;
16826;SDS011;8530;49.540;8.576;2023-04-09T14:13:46;9.97;;;7.87;;
16826;SDS011;8530;49.540;8.576;2023-04-09T14:16:12;5.17;;;4.50;;
16826;SDS011;8530;49.540;8.576;2023-04-09T14:18:39;5.00;;;4.13;;
16826;SDS011;8530;49.540;8.576;2023-04-09T14:21:06;6.17;;;5.17;;
16826;SDS011;8530;49.540;8.576;2023-04-09T14:23:33;5.30;;;4.60;;
16826;SDS011;8530;49.540;8.576;2023-04-09T14:26:01;5.60;;;3.70;;
16826;SDS011;8530;49.540;8.576;2023-04-09T14:28:28;6.90;;;5.00;;
16826;SDS011;8530;49.540;8.576;2023-04-09T14:30:57;5.53;;;4.87;;
16826;SDS011;8530;49.540;8.576;2023-04-09T14:33:24;4.80;;;4.07;;
16826;SDS011;8530;49.540;8.576;2023-04-09T14:35:51;4.40;;;3.43;;
16826;SDS011;8530;49.540;8.576;2023-04-09T14:38:17;3.80;;;3.50;;
16826;SDS011;8530;49.540;8.576;2023-04-09T14:40:44;4.60;;;4.03;;
16826;SDS011;8530;49.540;8.576;2023-04-09T14:43:11;4.07;;;3.43;;
16826;SDS011;8530;49.540;8.576;2023-04-09T14:45:37;4.83;;;4.37;;
16826;SDS011;8530;49.540;8.576;2023-04-09T14:48:06;4.30;;;3.87;;
16826;SDS011;8530;49.540;8.576;2023-04-09T14:50:33;4.43;;;4.03;;
16826;SDS011;8530;49.540;8.576;2023-04-09T14:53:00;4.20;;;3.30;;
16826;SDS011;8530;49.540;8.576;2023-04-09T14:55:27;4.10;;;3.70;;